KPDX/PDX METAR and TAF weather

Enter ICAO airport designator
Station Type Date Time Source
KPDX METAR 2022/11/26 07:53 UTC NOAA

KPDX 260753Z 00000KT 10SM FEW024 BKN043 06/04 A3046 RMK AO2 SLP315 T00560039 400670028


Station Type Date Time Source
KPDX Decoded METAR 2022/11/26 07:53 UTC NOAA

PORTLAND INTERNATIONAL AIRPORT, OR, United States (KPDX) 45-35N 122-36W 7M
Nov 26, 2022 - 02:53 AM EST / 2022.11.26 0753 UTC
Wind: Calm:0
Visibility: 10 mile(s):0
Sky conditions: mostly cloudy
Temperature: 42.1 F (5.6 C)
Dew Point: 39.0 F (3.9 C)
Relative Humidity: 88%
Pressure (altimeter): 30.46 in. Hg (1031 hPa)
ob: KPDX 260753Z 00000KT 10SM FEW024 BKN043 06/04 A3046 RMK AO2 SLP315 T00560039 400670028
cycle: 8

Station Type Date Time Source
KPDX TAF 2022/11/26 06:33 UTC NOAA

TAF KPDX 260530Z 2606/2706 VRB03KT P6SM SCT020 OVC040
FM261200 VRB02KT P6SM BKN015 OVC035
FM262100 22004KT P6SM BKN040 BKN120
FM270400 20004KT P6SM OVC060

Example: see airport list